sensor_id;sensor_type;location;lat;lon;timestamp;pressure;altitude;pressure_sealevel;temperature;humidity
7157;BME280;3620;49.862;8.758;2022-12-18T00:02:03;100553.03;;;-7.45;100.00
7157;BME280;3620;49.862;8.758;2022-12-18T00:04:30;100552.72;;;-7.69;100.00
7157;BME280;3620;49.862;8.758;2022-12-18T00:06:56;100541.34;;;-7.75;100.00
7157;BME280;3620;49.862;8.758;2022-12-18T00:09:24;100544.50;;;-7.81;100.00
7157;BME280;3620;49.862;8.758;2022-12-18T00:11:50;100538.94;;;-7.55;100.00
7157;BME280;3620;49.862;8.758;2022-12-18T00:14:18;100540.94;;;-7.67;100.00
7157;BME280;3620;49.862;8.758;2022-12-18T00:16:46;100535.38;;;-7.76;100.00
7157;BME280;3620;49.862;8.758;2022-12-18T00:19:14;100527.50;;;-7.63;100.00
7157;BME280;3620;49.862;8.758;2022-12-18T00:21:41;100534.06;;;-7.68;100.00
7157;BME280;3620;49.862;8.758;2022-12-18T00:24:09;100540.78;;;-7.70;100.00
7157;BME280;3620;49.862;8.758;2022-12-18T00:26:38;100545.72;;;-7.73;100.00
7157;BME280;3620;49.862;8.758;2022-12-18T00:29:07;100546.53;;;-7.74;100.00
7157;BME280;3620;49.862;8.758;2022-12-18T00:31:36;100551.09;;;-7.84;100.00
7157;BME280;3620;49.862;8.758;2022-12-18T00:34:03;100558.63;;;-7.87;100.00
7157;BME280;3620;49.862;8.758;2022-12-18T00:36:31;100556.97;;;-7.87;100.00
7157;BME280;3620;49.862;8.758;2022-12-18T00:39:00;100560.59;;;-7.82;100.00
7157;BME280;3620;49.862;8.758;2022-12-18T00:41:28;100554.09;;;-7.93;100.00
7157;BME280;3620;49.862;8.758;2022-12-18T00:44:13;100563.22;;;-7.98;100.00
7157;BME280;3620;49.862;8.758;2022-12-18T00:46:43;100562.56;;;-7.94;100.00
7157;BME280;3620;49.862;8.758;2022-12-18T00:49:10;100545.53;;;-8.11;100.00
7157;BME280;3620;49.862;8.758;2022-12-18T00:51:40;100543.81;;;-8.12;100.00
7157;BME280;3620;49.862;8.758;2022-12-18T00:54:06;100547.31;;;-8.10;100.00
7157;BME280;3620;49.862;8.758;2022-12-18T00:56:35;100543.81;;;-8.12;100.00
7157;BME280;3620;49.862;8.758;2022-12-18T00:59:02;100544.22;;;-7.87;100.00
7157;BME280;3620;49.862;8.758;2022-12-18T01:01:28;100547.38;;;-7.91;100.00
7157;BME280;3620;49.862;8.758;2022-12-18T01:03:56;100553.97;;;-7.78;100.00
7157;BME280;3620;49.862;8.758;2022-12-18T01:06:22;100560.19;;;-7.56;100.00
7157;BME280;3620;49.862;8.758;2022-12-18T01:08:49;100561.63;;;-7.61;100.00
7157;BME280;3620;49.862;8.758;2022-12-18T01:11:18;100554.75;;;-7.62;100.00
7157;BME280;3620;49.862;8.758;2022-12-18T01:13:45;100560.38;;;-7.69;100.00
7157;BME280;3620;49.862;8.758;2022-12-18T01:16:12;100556.66;;;-7.58;100.00
7157;BME280;3620;49.862;8.758;2022-12-18T01:18:39;100556.97;;;-7.52;100.00
7157;BME280;3620;49.862;8.758;2022-12-18T01:21:09;100557.25;;;-7.63;100.00
7157;BME280;3620;49.862;8.758;2022-12-18T01:23:35;100559.59;;;-7.68;100.00
7157;BME280;3620;49.862;8.758;2022-12-18T01:26:06;100565.13;;;-7.59;100.00
7157;BME280;3620;49.862;8.758;2022-12-18T01:28:33;100559.75;;;-7.65;100.00
7157;BME280;3620;49.862;8.758;2022-12-18T01:31:13;100558.59;;;-7.71;100.00
7157;BME280;3620;49.862;8.758;2022-12-18T01:33:40;100574.31;;;-7.80;100.00
7157;BME280;3620;49.862;8.758;2022-12-18T01:36:14;100561.25;;;-7.86;99.88
7157;BME280;3620;49.862;8.758;2022-12-18T01:38:41;100560.03;;;-7.94;99.53
7157;BME280;3620;49.862;8.758;2022-12-18T01:41:08;100562.31;;;-8.16;100.00
7157;BME280;3620;49.862;8.758;2022-12-18T01:43:57;100579.22;;;-8.18;100.00
7157;BME280;3620;49.862;8.758;2022-12-18T01:46:24;100591.16;;;-8.17;100.00
7157;BME280;3620;49.862;8.758;2022-12-18T01:48:53;100585.50;;;-8.11;100.00
7157;BME280;3620;49.862;8.758;2022-12-18T01:51:21;100584.22;;;-7.86;100.00
7157;BME280;3620;49.862;8.758;2022-12-18T01:53:49;100589.91;;;-8.25;100.00
7157;BME280;3620;49.862;8.758;2022-12-18T01:56:17;100585.50;;;-8.61;100.00
7157;BME280;3620;49.862;8.758;2022-12-18T01:58:50;100587.69;;;-8.69;100.00
7157;BME280;3620;49.862;8.758;2022-12-18T02:01:20;100590.94;;;-8.71;100.00
7157;BME280;3620;49.862;8.758;2022-12-18T02:03:47;100589.66;;;-8.63;100.00
7157;BME280;3620;49.862;8.758;2022-12-18T02:06:16;100586.31;;;-8.78;100.00
7157;BME280;3620;49.862;8.758;2022-12-18T02:08:53;100576.13;;;-8.78;100.00
7157;BME280;3620;49.862;8.758;2022-12-18T02:11:31;100582.66;;;-8.67;100.00
7157;BME280;3620;49.862;8.758;2022-12-18T02:14:05;100581.53;;;-8.72;100.00
7157;BME280;3620;49.862;8.758;2022-12-18T02:16:43;100580.91;;;-8.84;100.00
7157;BME280;3620;49.862;8.758;2022-12-18T02:19:22;100582.00;;;-8.79;100.00
7157;BME280;3620;49.862;8.758;2022-12-18T02:21:57;100576.78;;;-8.82;100.00
7157;BME280;3620;49.862;8.758;2022-12-18T02:24:35;100575.16;;;-8.97;100.00
7157;BME280;3620;49.862;8.758;2022-12-18T02:27:07;100571.81;;;-8.95;100.00
7157;BME280;3620;49.862;8.758;2022-12-18T02:29:38;100574.84;;;-9.03;100.00
7157;BME280;3620;49.862;8.758;2022-12-18T02:32:09;100567.94;;;-8.89;100.00
7157;BME280;3620;49.862;8.758;2022-12-18T02:34:38;100561.94;;;-8.89;100.00
7157;BME280;3620;49.862;8.758;2022-12-18T02:37:07;100549.44;;;-8.85;100.00
7157;BME280;3620;49.862;8.758;2022-12-18T02:39:36;100556.75;;;-9.07;100.00
7157;BME280;3620;49.862;8.758;2022-12-18T02:42:05;100554.00;;;-8.95;100.00
7157;BME280;3620;49.862;8.758;2022-12-18T02:44:33;100551.09;;;-9.02;100.00
7157;BME280;3620;49.862;8.758;2022-12-18T02:47:00;100548.38;;;-9.21;100.00
7157;BME280;3620;49.862;8.758;2022-12-18T02:49:34;100544.88;;;-9.23;100.00
7157;BME280;3620;49.862;8.758;2022-12-18T02:52:08;100550.59;;;-9.27;100.00
7157;BME280;3620;49.862;8.758;2022-12-18T02:54:49;100547.56;;;-9.36;100.00
7157;BME280;3620;49.862;8.758;2022-12-18T02:57:23;100548.91;;;-9.26;100.00
7157;BME280;3620;49.862;8.758;2022-12-18T02:59:57;100537.44;;;-9.34;100.00
7157;BME280;3620;49.862;8.758;2022-12-18T03:02:27;100543.75;;;-9.28;100.00
7157;BME280;3620;49.862;8.758;2022-12-18T03:05:00;100539.28;;;-9.32;100.00
7157;BME280;3620;49.862;8.758;2022-12-18T03:07:36;100540.72;;;-9.37;100.00
7157;BME280;3620;49.862;8.758;2022-12-18T03:10:06;100546.34;;;-9.42;100.00
7157;BME280;3620;49.862;8.758;2022-12-18T03:12:39;100553.19;;;-9.41;100.00
7157;BME280;3620;49.862;8.758;2022-12-18T03:15:10;100563.38;;;-9.41;100.00
7157;BME280;3620;49.862;8.758;2022-12-18T03:17:42;100573.41;;;-9.44;100.00
7157;BME280;3620;49.862;8.758;2022-12-18T03:20:15;100574.13;;;-9.31;100.00
7157;BME280;3620;49.862;8.758;2022-12-18T03:22:46;100570.75;;;-9.31;100.00
7157;BME280;3620;49.862;8.758;2022-12-18T03:25:16;100559.16;;;-9.41;100.00
7157;BME280;3620;49.862;8.758;2022-12-18T03:27:54;100562.50;;;-9.42;100.00
7157;BME280;3620;49.862;8.758;2022-12-18T03:30:23;100557.75;;;-9.36;100.00
7157;BME280;3620;49.862;8.758;2022-12-18T03:32:55;100567.06;;;-9.36;100.00
7157;BME280;3620;49.862;8.758;2022-12-18T03:35:41;100567.25;;;-9.48;100.00
7157;BME280;3620;49.862;8.758;2022-12-18T03:38:09;100559.53;;;-9.49;100.00
7157;BME280;3620;49.862;8.758;2022-12-18T03:40:48;100559.16;;;-9.41;100.00
7157;BME280;3620;49.862;8.758;2022-12-18T03:43:23;100557.88;;;-9.49;100.00
7157;BME280;3620;49.862;8.758;2022-12-18T03:45:59;100562.34;;;-9.45;100.00
7157;BME280;3620;49.862;8.758;2022-12-18T03:48:30;100552.53;;;-9.53;100.00
7157;BME280;3620;49.862;8.758;2022-12-18T03:50:59;100541.97;;;-9.45;100.00
7157;BME280;3620;49.862;8.758;2022-12-18T03:53:33;100539.94;;;-9.36;100.00
7157;BME280;3620;49.862;8.758;2022-12-18T03:56:03;100534.13;;;-9.33;100.00
7157;BME280;3620;49.862;8.758;2022-12-18T03:58:33;100531.94;;;-9.42;100.00
7157;BME280;3620;49.862;8.758;2022-12-18T04:01:03;100527.00;;;-9.39;100.00
7157;BME280;3620;49.862;8.758;2022-12-18T04:03:35;100530.69;;;-9.34;100.00
7157;BME280;3620;49.862;8.758;2022-12-18T04:06:03;100535.59;;;-9.37;100.00
7157;BME280;3620;49.862;8.758;2022-12-18T04:08:31;100533.00;;;-9.38;100.00
7157;BME280;3620;49.862;8.758;2022-12-18T04:10:59;100537.38;;;-9.36;100.00
7157;BME280;3620;49.862;8.758;2022-12-18T04:13:28;100537.38;;;-9.36;100.00
7157;BME280;3620;49.862;8.758;2022-12-18T04:15:56;100540.88;;;-9.34;100.00
7157;BME280;3620;49.862;8.758;2022-12-18T04:18:22;100544.22;;;-9.35;100.00
7157;BME280;3620;49.862;8.758;2022-12-18T04:20:49;100540.22;;;-9.46;100.00
7157;BME280;3620;49.862;8.758;2022-12-18T04:23:15;100542.63;;;-9.33;100.00
7157;BME280;3620;49.862;8.758;2022-12-18T04:25:42;100537.38;;;-9.36;100.00
7157;BME280;3620;49.862;8.758;2022-12-18T04:28:08;100547.31;;;-9.24;100.00
7157;BME280;3620;49.862;8.758;2022-12-18T04:30:35;100551.56;;;-9.25;100.00
7157;BME280;3620;49.862;8.758;2022-12-18T04:33:03;100537.53;;;-9.33;100.00
7157;BME280;3620;49.862;8.758;2022-12-18T04:35:29;100533.63;;;-9.26;100.00
7157;BME280;3620;49.862;8.758;2022-12-18T04:37:56;100532.78;;;-9.27;100.00
7157;BME280;3620;49.862;8.758;2022-12-18T04:40:22;100527.34;;;-9.33;100.00
7157;BME280;3620;49.862;8.758;2022-12-18T04:42:49;100526.50;;;-9.33;100.00
7157;BME280;3620;49.862;8.758;2022-12-18T04:45:16;100529.03;;;-9.17;100.00
7157;BME280;3620;49.862;8.758;2022-12-18T04:47:42;100525.53;;;-9.19;100.00
7157;BME280;3620;49.862;8.758;2022-12-18T04:50:10;100520.22;;;-9.08;100.00
7157;BME280;3620;49.862;8.758;2022-12-18T04:52:37;100528.63;;;-9.09;100.00
7157;BME280;3620;49.862;8.758;2022-12-18T04:55:04;100529.50;;;-9.24;100.00
7157;BME280;3620;49.862;8.758;2022-12-18T04:57:30;100527.69;;;-9.27;100.00
7157;BME280;3620;49.862;8.758;2022-12-18T04:59:57;100523.41;;;-9.12;100.00
7157;BME280;3620;49.862;8.758;2022-12-18T05:02:24;100528.19;;;-9.18;100.00
7157;BME280;3620;49.862;8.758;2022-12-18T05:04:50;100529.44;;;-9.10;100.00
7157;BME280;3620;49.862;8.758;2022-12-18T05:07:18;100522.50;;;-9.12;100.00
7157;BME280;3620;49.862;8.758;2022-12-18T05:09:44;100535.44;;;-9.09;100.00
7157;BME280;3620;49.862;8.758;2022-12-18T05:12:11;100542.19;;;-9.10;100.00
7157;BME280;3620;49.862;8.758;2022-12-18T05:14:38;100541.47;;;-9.07;100.00
7157;BME280;3620;49.862;8.758;2022-12-18T05:17:04;100540.41;;;-9.11;100.00
7157;BME280;3620;49.862;8.758;2022-12-18T05:19:31;100531.53;;;-9.03;100.00
7157;BME280;3620;49.862;8.758;2022-12-18T05:21:57;100543.91;;;-9.09;100.00
7157;BME280;3620;49.862;8.758;2022-12-18T05:24:25;100539.47;;;-8.97;100.00
7157;BME280;3620;49.862;8.758;2022-12-18T05:26:52;100542.81;;;-8.98;100.00
7157;BME280;3620;49.862;8.758;2022-12-18T05:29:18;100544.81;;;-9.08;100.00
7157;BME280;3620;49.862;8.758;2022-12-18T05:31:45;100547.47;;;-9.07;100.00
7157;BME280;3620;49.862;8.758;2022-12-18T05:34:11;100559.69;;;-9.00;100.00
7157;BME280;3620;49.862;8.758;2022-12-18T05:36:38;100556.66;;;-9.09;100.00
7157;BME280;3620;49.862;8.758;2022-12-18T05:39:04;100558.44;;;-9.08;100.00
7157;BME280;3620;49.862;8.758;2022-12-18T05:41:33;100558.28;;;-8.94;100.00
7157;BME280;3620;49.862;8.758;2022-12-18T05:44:00;100553.66;;;-8.85;100.00
7157;BME280;3620;49.862;8.758;2022-12-18T05:46:26;100541.47;;;-9.07;100.00
7157;BME280;3620;49.862;8.758;2022-12-18T05:48:53;100547.75;;;-9.01;100.00
7157;BME280;3620;49.862;8.758;2022-12-18T05:51:21;100538.94;;;-8.91;100.00
7157;BME280;3620;49.862;8.758;2022-12-18T05:53:48;100530.56;;;-8.72;100.00
7157;BME280;3620;49.862;8.758;2022-12-18T05:56:16;100532.78;;;-8.62;100.00
7157;BME280;3620;49.862;8.758;2022-12-18T05:58:45;100539.50;;;-8.64;100.00
7157;BME280;3620;49.862;8.758;2022-12-18T06:01:14;100541.38;;;-8.60;100.00
7157;BME280;3620;49.862;8.758;2022-12-18T06:03:40;100539.63;;;-8.61;100.00
7157;BME280;3620;49.862;8.758;2022-12-18T06:06:13;100528.16;;;-8.53;100.00
7157;BME280;3620;49.862;8.758;2022-12-18T06:08:40;100529.28;;;-8.64;100.00
7157;BME280;3620;49.862;8.758;2022-12-18T06:11:07;100529.72;;;-8.55;100.00
7157;BME280;3620;49.862;8.758;2022-12-18T06:13:33;100531.78;;;-8.48;100.00
7157;BME280;3620;49.862;8.758;2022-12-18T06:16:03;100534.31;;;-8.32;100.00
7157;BME280;3620;49.862;8.758;2022-12-18T06:18:29;100541.44;;;-8.25;100.00
7157;BME280;3620;49.862;8.758;2022-12-18T06:20:57;100547.56;;;-8.55;100.00
7157;BME280;3620;49.862;8.758;2022-12-18T06:23:24;100546.16;;;-8.66;100.00
7157;BME280;3620;49.862;8.758;2022-12-18T06:25:50;100544.34;;;-8.85;100.00
7157;BME280;3620;49.862;8.758;2022-12-18T06:28:17;100555.25;;;-8.87;100.00
7157;BME280;3620;49.862;8.758;2022-12-18T06:30:44;100559.88;;;-8.97;100.00
7157;BME280;3620;49.862;8.758;2022-12-18T06:33:12;100563.53;;;-8.91;100.00
7157;BME280;3620;49.862;8.758;2022-12-18T06:35:39;100562.91;;;-8.87;100.00
7157;BME280;3620;49.862;8.758;2022-12-18T06:38:05;100568.94;;;-8.85;100.00
7157;BME280;3620;49.862;8.758;2022-12-18T06:40:32;100575.16;;;-8.97;100.00
7157;BME280;3620;49.862;8.758;2022-12-18T06:42:59;100590.44;;;-8.97;100.00
7157;BME280;3620;49.862;8.758;2022-12-18T06:45:25;100583.38;;;-9.02;100.00
7157;BME280;3620;49.862;8.758;2022-12-18T06:47:52;100578.34;;;-9.01;100.00
7157;BME280;3620;49.862;8.758;2022-12-18T06:50:19;100578.84;;;-8.91;100.00
7157;BME280;3620;49.862;8.758;2022-12-18T06:52:46;100583.25;;;-9.04;100.00
7157;BME280;3620;49.862;8.758;2022-12-18T06:55:12;100580.06;;;-9.00;100.00
7157;BME280;3620;49.862;8.758;2022-12-18T06:57:39;100586.94;;;-8.99;100.00
7157;BME280;3620;49.862;8.758;2022-12-18T07:00:06;100593.47;;;-8.87;100.00
7157;BME280;3620;49.862;8.758;2022-12-18T07:02:33;100593.16;;;-8.77;100.00
7157;BME280;3620;49.862;8.758;2022-12-18T07:05:00;100594.22;;;-8.74;100.00
7157;BME280;3620;49.862;8.758;2022-12-18T07:07:28;100592.84;;;-8.83;100.00
7157;BME280;3620;49.862;8.758;2022-12-18T07:09:55;100582.09;;;-8.78;100.00
7157;BME280;3620;49.862;8.758;2022-12-18T07:12:21;100588.81;;;-8.80;100.00
7157;BME280;3620;49.862;8.758;2022-12-18T07:14:48;100591.34;;;-8.80;100.00
7157;BME280;3620;49.862;8.758;2022-12-18T07:17:14;100594.50;;;-8.84;100.00
7157;BME280;3620;49.862;8.758;2022-12-18T07:19:41;100601.44;;;-8.81;100.00
7157;BME280;3620;49.862;8.758;2022-12-18T07:22:07;100602.25;;;-8.66;100.00
7157;BME280;3620;49.862;8.758;2022-12-18T07:24:36;100604.72;;;-8.68;100.00
7157;BME280;3620;49.862;8.758;2022-12-18T07:27:02;100611.00;;;-8.61;100.00
7157;BME280;3620;49.862;8.758;2022-12-18T07:29:29;100603.78;;;-8.54;100.00
7157;BME280;3620;49.862;8.758;2022-12-18T07:31:56;100601.00;;;-8.42;100.00
7157;BME280;3620;49.862;8.758;2022-12-18T07:34:22;100604.72;;;-8.36;100.00
7157;BME280;3620;49.862;8.758;2022-12-18T07:36:49;100609.41;;;-8.27;100.00
7157;BME280;3620;49.862;8.758;2022-12-18T07:39:15;100604.41;;;-8.24;100.00
7157;BME280;3620;49.862;8.758;2022-12-18T07:41:43;100598.88;;;-8.33;100.00
7157;BME280;3620;49.862;8.758;2022-12-18T07:44:30;100597.56;;;-8.25;100.00
7157;BME280;3620;49.862;8.758;2022-12-18T07:46:56;100599.94;;;-8.30;100.00
7157;BME280;3620;49.862;8.758;2022-12-18T07:49:22;100605.38;;;-8.22;100.00
7157;BME280;3620;49.862;8.758;2022-12-18T07:51:49;100609.50;;;-8.24;100.00
7157;BME280;3620;49.862;8.758;2022-12-18T07:54:15;100602.81;;;-8.22;100.00
7157;BME280;3620;49.862;8.758;2022-12-18T07:56:43;100605.22;;;-8.25;100.00
7157;BME280;3620;49.862;8.758;2022-12-18T07:59:10;100602.81;;;-8.22;100.00
7157;BME280;3620;49.862;8.758;2022-12-18T08:01:36;100604.16;;;-8.12;100.00
7157;BME280;3620;49.862;8.758;2022-12-18T08:04:03;100605.84;;;-8.13;100.00
7157;BME280;3620;49.862;8.758;2022-12-18T08:06:30;100608.72;;;-8.07;100.00
7157;BME280;3620;49.862;8.758;2022-12-18T08:08:57;100614.72;;;-7.89;100.00
7157;BME280;3620;49.862;8.758;2022-12-18T08:11:25;100620.25;;;-7.80;100.00
7157;BME280;3620;49.862;8.758;2022-12-18T08:13:54;100620.44;;;-7.77;100.00
7157;BME280;3620;49.862;8.758;2022-12-18T08:16:21;100625.25;;;-7.83;100.00
7157;BME280;3620;49.862;8.758;2022-12-18T08:18:48;100617.16;;;-7.74;100.00
7157;BME280;3620;49.862;8.758;2022-12-18T08:21:16;100619.97;;;-7.86;100.00
7157;BME280;3620;49.862;8.758;2022-12-18T08:23:43;100612.28;;;-7.70;100.00
7157;BME280;3620;49.862;8.758;2022-12-18T08:26:11;100613.72;;;-7.39;100.00
7157;BME280;3620;49.862;8.758;2022-12-18T08:28:38;100622.06;;;-7.61;100.00
7157;BME280;3620;49.862;8.758;2022-12-18T08:31:07;100620.38;;;-7.61;100.00
7157;BME280;3620;49.862;8.758;2022-12-18T08:33:34;100619.88;;;-7.54;100.00
7157;BME280;3620;49.862;8.758;2022-12-18T08:36:01;100619.44;;;-7.63;100.00
7157;BME280;3620;49.862;8.758;2022-12-18T08:38:29;100609.06;;;-7.66;100.00
7157;BME280;3620;49.862;8.758;2022-12-18T08:40:58;100607.91;;;-7.55;100.00
7157;BME280;3620;49.862;8.758;2022-12-18T08:43:25;100626.59;;;-7.56;100.00
7157;BME280;3620;49.862;8.758;2022-12-18T08:46:11;100614.19;;;-7.48;100.00
7157;BME280;3620;49.862;8.758;2022-12-18T08:48:40;100612.66;;;-7.44;100.00
7157;BME280;3620;49.862;8.758;2022-12-18T08:51:07;100600.72;;;-7.26;100.00
7157;BME280;3620;49.862;8.758;2022-12-18T08:53:34;100591.56;;;-7.40;100.00
7157;BME280;3620;49.862;8.758;2022-12-18T08:56:01;100586.88;;;-7.31;100.00
7157;BME280;3620;49.862;8.758;2022-12-18T08:58:28;100584.16;;;-7.34;100.00
7157;BME280;3620;49.862;8.758;2022-12-18T09:00:58;100584.75;;;-7.22;100.00
7157;BME280;3620;49.862;8.758;2022-12-18T09:03:26;100585.97;;;-7.14;100.00
7157;BME280;3620;49.862;8.758;2022-12-18T09:05:53;100590.69;;;-7.04;100.00
7157;BME280;3620;49.862;8.758;2022-12-18T09:08:19;100593.03;;;-6.91;100.00
7157;BME280;3620;49.862;8.758;2022-12-18T09:10:47;100589.81;;;-6.68;100.00
7157;BME280;3620;49.862;8.758;2022-12-18T09:13:15;100589.94;;;-6.46;100.00
7157;BME280;3620;49.862;8.758;2022-12-18T09:15:43;100584.53;;;-6.33;100.00
7157;BME280;3620;49.862;8.758;2022-12-18T09:18:10;100582.81;;;-6.13;100.00
7157;BME280;3620;49.862;8.758;2022-12-18T09:20:39;100592.31;;;-6.11;100.00
7157;BME280;3620;49.862;8.758;2022-12-18T09:23:06;100595.81;;;-6.09;100.00
7157;BME280;3620;49.862;8.758;2022-12-18T09:25:35;100605.22;;;-5.88;100.00
7157;BME280;3620;49.862;8.758;2022-12-18T09:28:03;100609.84;;;-5.80;100.00
7157;BME280;3620;49.862;8.758;2022-12-18T09:30:29;100616.31;;;-5.67;100.00
7157;BME280;3620;49.862;8.758;2022-12-18T09:32:58;100615.19;;;-5.53;100.00
7157;BME280;3620;49.862;8.758;2022-12-18T09:35:25;100617.63;;;-5.56;100.00
7157;BME280;3620;49.862;8.758;2022-12-18T09:37:54;100621.13;;;-5.54;100.00
7157;BME280;3620;49.862;8.758;2022-12-18T09:40:22;100620.00;;;-5.40;100.00
7157;BME280;3620;49.862;8.758;2022-12-18T09:42:53;100609.88;;;-5.37;100.00
7157;BME280;3620;49.862;8.758;2022-12-18T09:45:22;100607.28;;;-5.16;100.00
7157;BME280;3620;49.862;8.758;2022-12-18T09:47:51;100607.75;;;-5.04;100.00
7157;BME280;3620;49.862;8.758;2022-12-18T09:50:24;100609.13;;;-5.12;100.00
7157;BME280;3620;49.862;8.758;2022-12-18T09:52:56;100613.28;;;-5.16;100.00
7157;BME280;3620;49.862;8.758;2022-12-18T09:55:27;100611.88;;;-5.08;100.00
7157;BME280;3620;49.862;8.758;2022-12-18T09:57:57;100618.16;;;-5.00;100.00
7157;BME280;3620;49.862;8.758;2022-12-18T10:00:26;100614.94;;;-4.96;100.00
7157;BME280;3620;49.862;8.758;2022-12-18T10:02:58;100621.22;;;-4.88;100.00
7157;BME280;3620;49.862;8.758;2022-12-18T10:05:33;100622.97;;;-4.87;100.00
7157;BME280;3620;49.862;8.758;2022-12-18T10:08:06;100633.34;;;-4.84;100.00
7157;BME280;3620;49.862;8.758;2022-12-18T10:10:38;100623.06;;;-4.84;100.00
7157;BME280;3620;49.862;8.758;2022-12-18T10:13:14;100623.34;;;-4.78;100.00
7157;BME280;3620;49.862;8.758;2022-12-18T10:15:52;100622.38;;;-4.80;100.00
7157;BME280;3620;49.862;8.758;2022-12-18T10:18:29;100630.06;;;-4.80;100.00
7157;BME280;3620;49.862;8.758;2022-12-18T10:21:03;100634.63;;;-4.73;100.00
7157;BME280;3620;49.862;8.758;2022-12-18T10:23:35;100635.69;;;-4.68;100.00
7157;BME280;3620;49.862;8.758;2022-12-18T10:26:06;100630.53;;;-4.68;100.00
7157;BME280;3620;49.862;8.758;2022-12-18T10:28:37;100625.00;;;-4.56;100.00
7157;BME280;3620;49.862;8.758;2022-12-18T10:31:05;100626.34;;;-4.66;100.00
7157;BME280;3620;49.862;8.758;2022-12-18T10:33:33;100626.72;;;-4.55;100.00
7157;BME280;3620;49.862;8.758;2022-12-18T10:36:00;100611.75;;;-4.44;100.00
7157;BME280;3620;49.862;8.758;2022-12-18T10:38:29;100607.88;;;-4.33;100.00
7157;BME280;3620;49.862;8.758;2022-12-18T10:41:00;100596.78;;;-4.31;100.00
7157;BME280;3620;49.862;8.758;2022-12-18T10:43:29;100600.38;;;-4.27;100.00
7157;BME280;3620;49.862;8.758;2022-12-18T10:46:12;100611.16;;;-4.12;100.00
7157;BME280;3620;49.862;8.758;2022-12-18T10:48:48;100608.06;;;-4.27;100.00
7157;BME280;3620;49.862;8.758;2022-12-18T10:51:20;100606.03;;;-4.82;100.00
7157;BME280;3620;49.862;8.758;2022-12-18T10:53:52;100615.19;;;-4.88;100.00
7157;BME280;3620;49.862;8.758;2022-12-18T10:56:22;100609.38;;;-4.84;100.00
7157;BME280;3620;49.862;8.758;2022-12-18T10:58:56;100609.31;;;-4.86;100.00
7157;BME280;3620;49.862;8.758;2022-12-18T11:01:23;100608.97;;;-4.95;100.00
7157;BME280;3620;49.862;8.758;2022-12-18T11:03:59;100602.13;;;-4.72;100.00
7157;BME280;3620;49.862;8.758;2022-12-18T11:06:27;100602.81;;;-4.78;100.00
7157;BME280;3620;49.862;8.758;2022-12-18T11:08:58;100606.38;;;-4.73;100.00
7157;BME280;3620;49.862;8.758;2022-12-18T11:11:28;100599.41;;;-4.77;100.00
7157;BME280;3620;49.862;8.758;2022-12-18T11:14:00;100604.31;;;-4.83;100.00
7157;BME280;3620;49.862;8.758;2022-12-18T11:16:29;100607.63;;;-4.63;100.00
7157;BME280;3620;49.862;8.758;2022-12-18T11:19:11;100604.66;;;-4.74;100.00
7157;BME280;3620;49.862;8.758;2022-12-18T11:21:39;100591.66;;;-4.55;100.00
7157;BME280;3620;49.862;8.758;2022-12-18T11:24:19;100586.75;;;-4.49;100.00
7157;BME280;3620;49.862;8.758;2022-12-18T11:26:48;100594.44;;;-4.49;100.00
7157;BME280;3620;49.862;8.758;2022-12-18T11:29:16;100587.09;;;-4.39;100.00
7157;BME280;3620;49.862;8.758;2022-12-18T11:31:43;100590.75;;;-4.33;100.00
7157;BME280;3620;49.862;8.758;2022-12-18T11:34:12;100589.06;;;-4.32;100.00
7157;BME280;3620;49.862;8.758;2022-12-18T11:36:43;100583.78;;;-4.35;100.00
7157;BME280;3620;49.862;8.758;2022-12-18T11:39:17;100580.78;;;-4.24;100.00
7157;BME280;3620;49.862;8.758;2022-12-18T11:41:52;100584.91;;;-4.29;100.00
7157;BME280;3620;49.862;8.758;2022-12-18T11:44:42;100594.63;;;-4.20;100.00
7157;BME280;3620;49.862;8.758;2022-12-18T11:47:21;100596.16;;;-4.25;100.00
7157;BME280;3620;49.862;8.758;2022-12-18T11:49:52;100585.69;;;-4.06;100.00
7157;BME280;3620;49.862;8.758;2022-12-18T11:52:24;100564.22;;;-3.83;100.00
7157;BME280;3620;49.862;8.758;2022-12-18T11:54:53;100579.34;;;-3.67;100.00
7157;BME280;3620;49.862;8.758;2022-12-18T11:57:32;100578.34;;;-3.44;100.00
7157;BME280;3620;49.862;8.758;2022-12-18T12:00:09;100569.38;;;-3.83;100.00
7157;BME280;3620;49.862;8.758;2022-12-18T12:03:11;100568.53;;;-3.82;100.00
7157;BME280;3620;49.862;8.758;2022-12-18T12:05:54;100566.59;;;-3.89;100.00
7157;BME280;3620;49.862;8.758;2022-12-18T12:08:30;100564.69;;;-3.69;100.00
7157;BME280;3620;49.862;8.758;2022-12-18T12:11:04;100567.06;;;-3.76;100.00
7157;BME280;3620;49.862;8.758;2022-12-18T12:13:46;100563.69;;;-3.73;100.00
7157;BME280;3620;49.862;8.758;2022-12-18T12:16:17;100574.06;;;-3.70;100.00
7157;BME280;3620;49.862;8.758;2022-12-18T12:19:02;100574.69;;;-3.77;100.00
7157;BME280;3620;49.862;8.758;2022-12-18T12:21:38;100584.56;;;-3.64;100.00
7157;BME280;3620;49.862;8.758;2022-12-18T12:24:17;100574.81;;;-3.74;100.00
7157;BME280;3620;49.862;8.758;2022-12-18T12:26:52;100574.69;;;-3.52;100.00
7157;BME280;3620;49.862;8.758;2022-12-18T12:29:33;100573.22;;;-3.44;100.00
7157;BME280;3620;49.862;8.758;2022-12-18T12:32:16;100562.44;;;-3.32;100.00
7157;BME280;3620;49.862;8.758;2022-12-18T12:34:55;100565.13;;;-3.29;100.00
7157;BME280;3620;49.862;8.758;2022-12-18T12:37:34;100560.75;;;-3.32;100.00
7157;BME280;3620;49.862;8.758;2022-12-18T12:40:04;100556.34;;;-3.36;100.00
7157;BME280;3620;49.862;8.758;2022-12-18T12:42:33;100548.06;;;-3.26;100.00
7157;BME280;3620;49.862;8.758;2022-12-18T12:45:27;100540.84;;;-3.37;100.00
7157;BME280;3620;49.862;8.758;2022-12-18T12:47:57;100540.03;;;-3.36;100.00
7157;BME280;3620;49.862;8.758;2022-12-18T12:50:24;100543.63;;;-3.31;100.00
7157;BME280;3620;49.862;8.758;2022-12-18T12:52:53;100542.63;;;-3.35;100.00
7157;BME280;3620;49.862;8.758;2022-12-18T12:55:22;100544.28;;;-3.37;100.00
7157;BME280;3620;49.862;8.758;2022-12-18T12:57:57;100539.53;;;-3.25;100.00
7157;BME280;3620;49.862;8.758;2022-12-18T13:00:31;100542.00;;;-3.28;100.00
7157;BME280;3620;49.862;8.758;2022-12-18T13:03:07;100537.00;;;-3.23;100.00
7157;BME280;3620;49.862;8.758;2022-12-18T13:05:41;100541.97;;;-3.29;100.00
7157;BME280;3620;49.862;8.758;2022-12-18T13:08:11;100536.63;;;-3.35;100.00
7157;BME280;3620;49.862;8.758;2022-12-18T13:10:39;100540.91;;;-3.36;100.00
7157;BME280;3620;49.862;8.758;2022-12-18T13:13:07;100537.88;;;-3.23;100.00
7157;BME280;3620;49.862;8.758;2022-12-18T13:15:38;100536.19;;;-2.94;100.00